Mills River, North Carolina
Current Conditions -  °F | °C
As of 5:54 PM on Saturday 25 Oct 2014 (Local Time) from KAVL Reporting Station
Overcast Overcast  
Wind Chill: 67°   Ceiling: 7000
Heat Index: 67°   Visibility: 10mi
Dew Point: 41°   Wind: 14mph
Humidity: 39%   Direction: 340°NNW
Pressure: 30.02"   Gusts: NA
Location:  35.39°N, 82.56°W
Report Text: KAVL 252154Z 34012KT 10SM OVC070 19/05 A3002 RMK AO2 SLP154 T01940050
Loading
Personal Weather Stations






























Interactive Weather Map
Tropical Storm Tracking
New forecast layout! Learn more

10-Day Weather Forecast

Advertisements
Track Severe Weather on mobile